createdAt,value
2023-01-29T00:02:09.058Z,7.93
2023-01-29T00:04:37.686Z,7.70
2023-01-29T00:07:05.548Z,6.43
2023-01-29T00:09:33.265Z,6.53
2023-01-29T00:12:01.360Z,6.90
2023-01-29T00:14:29.121Z,6.70
2023-01-29T00:16:57.724Z,7.00
2023-01-29T00:19:27.952Z,7.33
2023-01-29T00:21:56.159Z,7.20
2023-01-29T00:24:26.895Z,6.87
2023-01-29T00:26:59.545Z,7.07
2023-01-29T00:29:30.591Z,6.13
2023-01-29T00:32:03.673Z,7.03
2023-01-29T00:34:37.261Z,6.43
2023-01-29T00:37:09.504Z,5.93
2023-01-29T00:39:47.960Z,6.13
2023-01-29T00:42:36.963Z,7.00
2023-01-29T00:45:10.063Z,7.77
2023-01-29T00:47:41.777Z,6.90
2023-01-29T00:50:13.551Z,7.17
2023-01-29T00:52:41.995Z,7.07
2023-01-29T00:55:12.272Z,7.73
2023-01-29T00:57:40.235Z,8.03
2023-01-29T01:00:11.632Z,7.90
2023-01-29T01:02:56.846Z,7.57
2023-01-29T01:05:26.203Z,7.70
2023-01-29T01:07:55.088Z,7.90
2023-01-29T01:10:24.345Z,8.00
2023-01-29T01:12:56.493Z,8.57
2023-01-29T01:15:25.735Z,9.20
2023-01-29T01:17:54.927Z,8.90
2023-01-29T01:20:23.755Z,7.50
2023-01-29T01:22:55.294Z,7.43
2023-01-29T01:25:24.465Z,7.13
2023-01-29T01:27:53.647Z,9.17
2023-01-29T01:30:21.757Z,9.67
2023-01-29T01:32:49.483Z,9.67
2023-01-29T01:35:17.988Z,7.80
2023-01-29T01:37:45.722Z,7.40
2023-01-29T01:40:18.983Z,7.27
2023-01-29T01:42:50.571Z,7.63
2023-01-29T01:45:25.947Z,6.97
2023-01-29T01:47:57.764Z,7.37
2023-01-29T01:50:29.758Z,7.23
2023-01-29T01:53:02.263Z,7.20
2023-01-29T01:55:34.277Z,7.37
2023-01-29T01:58:09.507Z,7.83
2023-01-29T02:00:39.868Z,7.73
2023-01-29T02:03:27.733Z,8.10
2023-01-29T02:06:15.824Z,8.03
2023-01-29T02:09:06.314Z,7.83
2023-01-29T02:11:38.253Z,7.97
2023-01-29T02:14:06.146Z,8.13
2023-01-29T02:16:36.598Z,8.03
2023-01-29T02:19:11.266Z,8.17
2023-01-29T02:21:59.271Z,7.80
2023-01-29T02:24:56.662Z,8.23
2023-01-29T02:27:39.170Z,7.30
2023-01-29T02:30:16.019Z,7.77
2023-01-29T02:32:58.460Z,8.40
2023-01-29T02:35:32.283Z,7.03
2023-01-29T02:38:11.358Z,7.50
2023-01-29T02:40:44.099Z,7.30
2023-01-29T02:43:28.409Z,6.70
2023-01-29T02:46:04.453Z,6.83
2023-01-29T02:48:42.253Z,7.30
2023-01-29T02:51:20.192Z,7.83
2023-01-29T02:54:00.369Z,7.93
2023-01-29T02:56:34.772Z,7.97
2023-01-29T02:59:08.749Z,7.73
2023-01-29T03:01:42.177Z,7.23
2023-01-29T03:04:14.055Z,7.40
2023-01-29T03:06:46.315Z,8.00
2023-01-29T03:09:18.807Z,8.03
2023-01-29T03:11:50.665Z,8.70
2023-01-29T03:14:47.154Z,8.60
2023-01-29T03:17:17.393Z,8.97
2023-01-29T03:19:48.107Z,8.73
2023-01-29T03:22:23.281Z,8.83
2023-01-29T03:25:12.675Z,8.77
2023-01-29T03:28:04.716Z,8.40
2023-01-29T03:31:04.358Z,8.40
2023-01-29T03:33:45.676Z,7.90
2023-01-29T03:36:17.982Z,7.93
2023-01-29T03:38:46.695Z,8.27
2023-01-29T03:41:23.505Z,8.33
2023-01-29T03:43:58.913Z,7.63
2023-01-29T03:46:31.874Z,7.93
2023-01-29T03:49:08.405Z,8.30
2023-01-29T03:51:42.543Z,7.70
2023-01-29T03:54:19.649Z,6.77
2023-01-29T03:56:59.910Z,6.53
2023-01-29T03:59:38.690Z,6.73
2023-01-29T04:02:28.542Z,7.43
2023-01-29T04:05:05.641Z,7.53
2023-01-29T04:07:39.648Z,7.40
2023-01-29T04:10:13.073Z,7.20
2023-01-29T04:12:45.334Z,6.50
2023-01-29T04:15:17.719Z,6.60
2023-01-29T04:17:51.021Z,6.23
2023-01-29T04:20:26.711Z,6.77
2023-01-29T04:22:54.750Z,6.73
2023-01-29T04:25:29.006Z,7.13
2023-01-29T04:28:08.886Z,7.17
2023-01-29T04:30:47.832Z,7.30
2023-01-29T04:33:28.632Z,7.03
2023-01-29T04:36:09.878Z,7.83
2023-01-29T04:38:48.807Z,7.47
2023-01-29T04:41:24.252Z,7.27
2023-01-29T04:44:01.386Z,8.93
2023-01-29T04:46:35.223Z,8.27
2023-01-29T04:49:16.418Z,8.40
2023-01-29T04:51:52.462Z,8.50
2023-01-29T04:54:29.856Z,8.60
2023-01-29T04:57:07.440Z,8.60
2023-01-29T04:59:40.978Z,9.17
2023-01-29T05:02:11.054Z,9.70
2023-01-29T05:04:42.396Z,8.40
2023-01-29T05:07:14.934Z,8.87
2023-01-29T05:09:46.185Z,9.17
2023-01-29T05:12:17.121Z,9.10
2023-01-29T05:14:47.751Z,9.03
2023-01-29T05:17:18.491Z,8.13
2023-01-29T05:19:47.769Z,9.30
2023-01-29T05:22:18.746Z,7.97
2023-01-29T05:24:46.546Z,8.40
2023-01-29T05:27:37.459Z,9.10
2023-01-29T05:30:06.337Z,8.63
2023-01-29T05:32:34.455Z,8.93
2023-01-29T05:35:02.431Z,9.33
2023-01-29T05:37:31.674Z,9.80
2023-01-29T05:39:59.482Z,9.37
2023-01-29T05:42:27.170Z,9.20
2023-01-29T05:44:55.480Z,9.90
2023-01-29T05:47:23.320Z,10.00
2023-01-29T05:49:51.085Z,9.60
2023-01-29T05:52:18.994Z,9.40
2023-01-29T05:54:48.115Z,9.87
2023-01-29T05:57:15.787Z,9.17
2023-01-29T05:59:43.805Z,7.80
2023-01-29T06:02:11.846Z,7.53
2023-01-29T06:04:39.641Z,8.10
2023-01-29T06:07:08.290Z,7.87
2023-01-29T06:09:36.019Z,8.07
2023-01-29T06:12:06.244Z,7.93
2023-01-29T06:14:34.116Z,8.70
2023-01-29T06:17:02.180Z,8.00
2023-01-29T06:19:29.929Z,8.60
2023-01-29T06:21:58.129Z,7.73
2023-01-29T06:24:25.877Z,9.17
2023-01-29T06:26:54.085Z,8.23
2023-01-29T06:29:23.603Z,9.20
2023-01-29T06:31:51.384Z,8.23
2023-01-29T06:34:19.398Z,8.50
2023-01-29T06:36:47.424Z,7.93
2023-01-29T06:39:15.991Z,8.40
2023-01-29T06:41:45.338Z,8.40
2023-01-29T06:44:13.318Z,7.80
2023-01-29T06:46:42.385Z,8.50
2023-01-29T06:49:10.771Z,8.77
2023-01-29T06:51:38.489Z,8.80
2023-01-29T06:54:08.210Z,9.23
2023-01-29T06:56:36.184Z,9.07
2023-01-29T06:59:04.285Z,9.13
2023-01-29T07:01:36.698Z,9.47
2023-01-29T07:04:06.178Z,9.60
2023-01-29T07:06:34.542Z,10.93
2023-01-29T07:09:02.629Z,9.40
2023-01-29T07:11:30.306Z,9.80
2023-01-29T07:13:57.979Z,9.97
2023-01-29T07:16:26.276Z,10.50
2023-01-29T07:18:54.872Z,10.13
2023-01-29T07:21:24.132Z,10.27
2023-01-29T07:23:52.580Z,8.90
2023-01-29T07:26:22.455Z,10.00
2023-01-29T07:28:50.277Z,9.43
2023-01-29T07:31:18.146Z,9.13
2023-01-29T07:33:46.238Z,8.57
2023-01-29T07:36:16.751Z,9.00
2023-01-29T07:38:50.511Z,8.87
2023-01-29T07:41:18.428Z,8.83
2023-01-29T07:43:47.574Z,8.63
2023-01-29T07:46:16.075Z,9.03
2023-01-29T07:48:44.052Z,8.97
2023-01-29T07:51:12.129Z,8.40
2023-01-29T07:53:40.740Z,8.63
2023-01-29T07:56:10.001Z,8.33
2023-01-29T07:58:37.792Z,7.53
2023-01-29T08:01:10.587Z,7.30
2023-01-29T08:03:39.292Z,6.97
2023-01-29T08:06:08.489Z,7.17
2023-01-29T08:08:37.900Z,7.67
2023-01-29T08:11:07.032Z,8.17
2023-01-29T08:13:36.596Z,7.80
2023-01-29T08:16:05.890Z,7.63
2023-01-29T08:18:33.774Z,7.30
2023-01-29T08:21:02.869Z,7.80
2023-01-29T08:23:31.195Z,8.20
2023-01-29T08:25:59.171Z,7.13
2023-01-29T08:28:27.622Z,7.67
2023-01-29T08:30:57.588Z,7.60
2023-01-29T08:33:39.171Z,7.50
2023-01-29T08:36:08.609Z,9.07
2023-01-29T08:38:37.205Z,9.20
2023-01-29T08:41:05.232Z,8.70
2023-01-29T08:43:33.168Z,9.30
2023-01-29T08:46:02.312Z,10.43
2023-01-29T08:48:30.672Z,10.20
2023-01-29T08:50:59.725Z,8.07
2023-01-29T08:53:29.539Z,7.47
2023-01-29T08:55:57.295Z,7.53
2023-01-29T08:58:24.974Z,7.43
2023-01-29T09:00:52.759Z,7.07
2023-01-29T09:03:21.943Z,7.13
2023-01-29T09:05:50.186Z,8.00
2023-01-29T09:08:18.719Z,8.40
2023-01-29T09:10:46.797Z,7.80
2023-01-29T09:13:14.574Z,8.70
2023-01-29T09:15:42.820Z,8.43
2023-01-29T09:18:10.582Z,7.23
2023-01-29T09:20:39.770Z,7.33
2023-01-29T09:23:07.944Z,7.40
2023-01-29T09:25:35.976Z,8.00
2023-01-29T09:28:04.089Z,7.20
2023-01-29T09:30:33.269Z,7.40
2023-01-29T09:33:01.764Z,7.20
2023-01-29T09:35:29.472Z,6.40
2023-01-29T09:37:58.869Z,7.20
2023-01-29T09:40:31.608Z,6.10
2023-01-29T09:43:05.232Z,7.13
2023-01-29T09:45:33.712Z,7.57
2023-01-29T09:48:05.651Z,7.17
2023-01-29T09:50:40.296Z,7.10
2023-01-29T09:53:20.167Z,7.53
2023-01-29T09:55:54.288Z,7.43
2023-01-29T09:58:28.306Z,7.83
2023-01-29T10:01:07.309Z,7.27
2023-01-29T10:04:03.280Z,7.87
2023-01-29T10:06:49.307Z,6.93
2023-01-29T10:09:47.685Z,5.90
2023-01-29T10:12:37.573Z,6.10
2023-01-29T10:15:18.077Z,5.40
2023-01-29T10:17:58.806Z,5.30
2023-01-29T10:20:51.247Z,6.00
2023-01-29T10:23:25.116Z,5.97
2023-01-29T10:25:55.324Z,7.27
2023-01-29T10:28:29.763Z,6.47
2023-01-29T10:31:13.388Z,5.33
2023-01-29T10:36:44.017Z,5.20
2023-01-29T10:39:19.714Z,5.97
2023-01-29T10:42:04.444Z,5.47
2023-01-29T10:44:42.178Z,5.57
2023-01-29T10:47:32.216Z,5.60
2023-01-29T10:50:12.616Z,5.33
2023-01-29T10:52:53.098Z,5.20
2023-01-29T10:55:36.371Z,5.20
2023-01-29T10:58:15.439Z,5.60
2023-01-29T11:00:43.709Z,5.20
2023-01-29T11:03:28.833Z,5.23
2023-01-29T11:06:03.874Z,5.20
2023-01-29T11:08:38.554Z,5.17
2023-01-29T11:11:10.476Z,5.33
2023-01-29T11:13:43.958Z,5.53
2023-01-29T11:16:11.811Z,5.27
2023-01-29T11:18:57.880Z,5.50
2023-01-29T11:21:27.086Z,5.23
2023-01-29T11:24:13.030Z,5.53
2023-01-29T11:26:43.376Z,5.30
2023-01-29T11:29:38.608Z,5.40
2023-01-29T11:32:08.768Z,5.47
2023-01-29T11:34:57.011Z,5.57
2023-01-29T11:37:32.233Z,5.10
2023-01-29T11:39:59.959Z,5.57
2023-01-29T11:42:32.443Z,5.20
2023-01-29T11:45:01.470Z,6.00
2023-01-29T11:47:31.472Z,6.73
2023-01-29T11:50:02.498Z,6.20
2023-01-29T11:52:38.498Z,5.40
2023-01-29T11:55:13.001Z,6.13
2023-01-29T11:57:44.187Z,6.20
2023-01-29T12:00:22.620Z,6.70
2023-01-29T12:02:56.318Z,6.43
2023-01-29T12:05:27.309Z,6.43
2023-01-29T12:07:57.293Z,6.40
2023-01-29T12:10:36.544Z,6.17
2023-01-29T12:13:19.932Z,6.17
2023-01-29T12:15:49.981Z,6.87
2023-01-29T12:18:27.051Z,6.70
2023-01-29T12:20:58.571Z,7.00
2023-01-29T12:23:36.343Z,7.20
2023-01-29T12:26:10.823Z,6.47
2023-01-29T12:28:49.470Z,7.30
2023-01-29T12:31:27.836Z,7.27
2023-01-29T12:34:02.858Z,6.87
2023-01-29T12:36:37.498Z,8.10
2023-01-29T12:39:05.704Z,7.93
2023-01-29T12:45:56.922Z,7.07
2023-01-29T12:48:31.234Z,7.03
2023-01-29T12:51:06.112Z,7.70
2023-01-29T12:53:39.626Z,7.97
2023-01-29T12:56:13.517Z,7.60
2023-01-29T12:58:46.412Z,7.77
2023-01-29T13:01:21.974Z,7.33
2023-01-29T13:03:56.990Z,9.20
2023-01-29T13:06:31.438Z,11.93
2023-01-29T13:09:02.816Z,8.40
2023-01-29T13:11:36.485Z,7.93
2023-01-29T13:14:10.751Z,8.70
2023-01-29T13:16:43.210Z,7.97
2023-01-29T13:19:21.827Z,8.17
2023-01-29T13:21:50.074Z,8.60
2023-01-29T13:24:22.462Z,8.30
2023-01-29T13:26:51.309Z,8.20
2023-01-29T13:29:24.625Z,7.23
2023-01-29T13:31:55.080Z,8.37
2023-01-29T13:34:28.403Z,7.83
2023-01-29T13:37:00.965Z,7.83
2023-01-29T13:39:31.118Z,8.50
2023-01-29T13:42:01.135Z,7.50
2023-01-29T13:44:33.925Z,7.83
2023-01-29T13:47:06.829Z,8.23
2023-01-29T13:49:39.585Z,7.90
2023-01-29T13:52:24.585Z,8.73
2023-01-29T13:54:57.467Z,8.60
2023-01-29T13:57:49.787Z,8.80
2023-01-29T14:00:51.194Z,8.20
2023-01-29T14:04:04.979Z,8.70
2023-01-29T14:06:52.294Z,8.13
2023-01-29T14:10:04.821Z,8.60
2023-01-29T14:12:46.240Z,7.73
2023-01-29T14:15:33.275Z,7.97
2023-01-29T14:18:05.691Z,8.10
2023-01-29T14:20:45.668Z,8.30
2023-01-29T14:23:25.016Z,9.03
2023-01-29T14:25:53.032Z,8.40
2023-01-29T14:28:24.873Z,8.27
2023-01-29T14:30:53.562Z,9.20
2023-01-29T14:33:29.070Z,8.53
2023-01-29T14:35:59.412Z,8.03
2023-01-29T14:38:30.601Z,8.47
2023-01-29T14:41:15.874Z,7.80
2023-01-29T14:43:43.742Z,9.30
2023-01-29T14:46:43.767Z,9.13
2023-01-29T14:49:12.024Z,8.90
2023-01-29T14:51:44.169Z,9.47
2023-01-29T14:54:33.901Z,9.23
2023-01-29T14:57:07.275Z,9.57
2023-01-29T14:59:38.005Z,10.17
2023-01-29T15:02:15.741Z,9.70
2023-01-29T15:04:47.800Z,10.33
2023-01-29T15:07:24.480Z,11.37
2023-01-29T15:10:13.502Z,11.33
2023-01-29T15:12:51.513Z,10.10
2023-01-29T15:15:27.469Z,10.00
2023-01-29T15:18:00.727Z,10.47
2023-01-29T15:20:35.224Z,11.63
2023-01-29T15:23:04.672Z,11.30
2023-01-29T15:25:37.653Z,11.87
2023-01-29T15:28:10.165Z,12.03
2023-01-29T15:30:38.954Z,11.43
2023-01-29T15:33:11.528Z,11.47
2023-01-29T15:35:41.499Z,12.90
2023-01-29T15:38:18.008Z,11.97
2023-01-29T15:40:58.373Z,11.67
2023-01-29T15:43:28.159Z,11.07
2023-01-29T15:46:00.470Z,13.53
2023-01-29T15:48:33.164Z,11.70
2023-01-29T15:51:01.269Z,11.80
2023-01-29T15:53:36.019Z,12.03
2023-01-29T15:56:09.815Z,12.73
2023-01-29T15:58:38.148Z,12.07
2023-01-29T16:01:07.106Z,12.10
2023-01-29T16:03:37.586Z,11.77
2023-01-29T16:06:07.353Z,12.63
2023-01-29T16:08:39.019Z,12.23
2023-01-29T16:11:13.182Z,13.83
2023-01-29T16:13:47.063Z,13.67
2023-01-29T16:16:30.827Z,18.00
2023-01-29T16:19:07.104Z,14.63
2023-01-29T16:21:45.233Z,14.53
2023-01-29T16:24:19.690Z,14.67
2023-01-29T16:26:50.711Z,14.10
2023-01-29T16:29:21.711Z,14.63
2023-01-29T16:31:53.075Z,14.07
2023-01-29T16:34:27.256Z,13.67
2023-01-29T16:36:56.182Z,14.43
2023-01-29T16:39:27.264Z,15.10
2023-01-29T16:42:25.337Z,14.00
2023-01-29T16:44:55.652Z,15.73
2023-01-29T16:47:29.408Z,16.13
2023-01-29T16:50:00.629Z,16.47
2023-01-29T16:52:30.504Z,16.47
2023-01-29T16:55:15.891Z,16.73
2023-01-29T16:57:52.761Z,15.63
2023-01-29T17:00:24.756Z,16.23
2023-01-29T17:02:55.836Z,15.30
2023-01-29T17:05:27.339Z,17.00
2023-01-29T17:07:58.770Z,17.43
2023-01-29T17:10:29.487Z,16.70
2023-01-29T17:13:05.391Z,18.10
2023-01-29T17:15:44.626Z,15.30
2023-01-29T17:18:18.928Z,15.17
2023-01-29T17:20:46.837Z,15.80
2023-01-29T17:23:15.137Z,18.73
2023-01-29T17:25:43.764Z,19.67
2023-01-29T17:28:14.558Z,18.47
2023-01-29T17:30:44.900Z,17.53
2023-01-29T17:33:21.757Z,18.93
2023-01-29T17:35:50.885Z,20.77
2023-01-29T17:38:26.463Z,21.00
2023-01-29T17:40:57.405Z,25.43
2023-01-29T17:43:26.801Z,23.40
2023-01-29T17:45:55.396Z,23.07
2023-01-29T17:48:24.585Z,20.97
2023-01-29T17:50:54.064Z,19.27
2023-01-29T17:53:24.863Z,19.97
2023-01-29T17:55:54.267Z,19.17
2023-01-29T17:58:24.043Z,17.73
2023-01-29T18:00:54.210Z,17.23
2023-01-29T18:03:22.956Z,20.97
2023-01-29T18:05:51.419Z,21.00
2023-01-29T18:08:22.207Z,23.73
2023-01-29T18:10:50.109Z,22.27
2023-01-29T18:13:17.902Z,19.23
2023-01-29T18:15:45.602Z,17.20
2023-01-29T18:18:17.354Z,15.77
2023-01-29T18:20:45.372Z,14.43
2023-01-29T18:23:13.562Z,16.47
2023-01-29T18:25:43.039Z,15.43
2023-01-29T18:28:14.896Z,27.20
2023-01-29T18:30:44.216Z,21.83
2023-01-29T18:33:12.676Z,15.17
2023-01-29T18:35:49.790Z,13.97
2023-01-29T18:38:18.018Z,13.73
2023-01-29T18:40:45.732Z,13.83
2023-01-29T18:43:14.904Z,14.33
2023-01-29T18:45:43.583Z,14.70
2023-01-29T18:48:11.349Z,15.60
2023-01-29T18:50:39.193Z,15.27
2023-01-29T18:53:08.270Z,14.37
2023-01-29T18:55:36.125Z,14.17
2023-01-29T18:58:33.424Z,17.30
2023-01-29T19:00:52.323Z,16.53
2023-01-29T19:03:20.837Z,16.97
2023-01-29T19:05:49.070Z,14.53
2023-01-29T19:08:18.375Z,14.00
2023-01-29T19:10:46.552Z,13.80
2023-01-29T19:13:14.295Z,12.40
2023-01-29T19:15:44.579Z,12.43
2023-01-29T19:18:14.658Z,11.13
2023-01-29T19:20:44.141Z,11.47
2023-01-29T19:23:11.892Z,13.17
2023-01-29T19:25:41.180Z,14.93
2023-01-29T19:28:09.030Z,12.97
2023-01-29T19:30:36.887Z,13.60
2023-01-29T19:33:05.270Z,12.73
2023-01-29T19:35:33.937Z,14.97
2023-01-29T19:38:01.756Z,17.63
2023-01-29T19:40:29.597Z,16.20
2023-01-29T19:42:58.748Z,15.20
2023-01-29T19:45:49.060Z,14.77
2023-01-29T19:48:15.869Z,23.53
2023-01-29T19:50:44.702Z,21.67
2023-01-29T19:53:12.385Z,19.27
2023-01-29T19:55:42.956Z,17.30
2023-01-29T19:58:12.863Z,15.50
2023-01-29T20:00:41.567Z,16.37
2023-01-29T20:03:09.450Z,15.10
2023-01-29T20:05:37.389Z,15.33
2023-01-29T20:08:05.460Z,14.93
2023-01-29T20:10:33.207Z,15.03
2023-01-29T20:13:01.595Z,17.47
2023-01-29T20:15:30.593Z,19.33
2023-01-29T20:17:58.949Z,15.57
2023-01-29T20:20:27.635Z,15.43
2023-01-29T20:23:01.520Z,15.47
2023-01-29T20:25:31.216Z,15.07
2023-01-29T20:27:59.482Z,15.03
2023-01-29T20:30:28.029Z,16.23
2023-01-29T20:32:57.060Z,16.87
2023-01-29T20:35:24.809Z,17.13
2023-01-29T20:37:52.940Z,17.93
2023-01-29T20:40:20.762Z,18.00
2023-01-29T20:42:49.046Z,18.50
2023-01-29T20:45:17.375Z,18.57
2023-01-29T20:47:45.672Z,18.53
2023-01-29T20:50:18.594Z,17.67
2023-01-29T20:52:48.749Z,17.13
2023-01-29T20:55:16.752Z,17.07
2023-01-29T20:57:45.752Z,18.33
2023-01-29T21:00:33.763Z,16.87
2023-01-29T21:03:01.987Z,17.20
2023-01-29T21:05:31.012Z,17.37
2023-01-29T21:07:58.686Z,16.87
2023-01-29T21:10:26.646Z,16.90
2023-01-29T21:12:54.662Z,16.70
2023-01-29T21:15:23.331Z,16.80
2023-01-29T21:17:51.658Z,18.37
2023-01-29T21:20:19.491Z,18.07
2023-01-29T21:22:49.733Z,18.47
2023-01-29T21:25:20.364Z,18.63
2023-01-29T21:27:48.375Z,18.23
2023-01-29T21:30:18.042Z,18.10
2023-01-29T21:32:46.084Z,17.87
2023-01-29T21:35:14.863Z,17.80
2023-01-29T21:37:43.172Z,19.03
2023-01-29T21:40:13.270Z,17.67
2023-01-29T21:42:58.994Z,19.73
2023-01-29T21:45:26.794Z,18.47
2023-01-29T21:47:55.215Z,19.77
2023-01-29T21:50:22.937Z,18.93
2023-01-29T21:52:50.785Z,17.77
2023-01-29T21:55:19.812Z,18.27
2023-01-29T21:57:48.738Z,19.23
2023-01-29T22:00:17.733Z,17.37
2023-01-29T22:02:46.370Z,17.97
2023-01-29T22:05:19.295Z,18.77
2023-01-29T22:07:49.050Z,18.80
2023-01-29T22:10:20.148Z,18.77
2023-01-29T22:12:48.946Z,18.70
2023-01-29T22:15:16.921Z,18.47
2023-01-29T22:17:44.655Z,19.37
2023-01-29T22:20:14.354Z,19.67
2023-01-29T22:22:42.669Z,19.17
2023-01-29T22:25:11.536Z,18.70
2023-01-29T22:27:41.098Z,19.03
2023-01-29T22:30:10.752Z,17.03
2023-01-29T22:32:38.505Z,18.47
2023-01-29T22:35:07.337Z,17.60
2023-01-29T22:37:35.116Z,16.90
2023-01-29T22:40:02.931Z,16.80
2023-01-29T22:42:30.664Z,15.70
2023-01-29T22:45:00.015Z,16.77
2023-01-29T22:47:28.032Z,15.93
2023-01-29T22:49:56.228Z,15.63
2023-01-29T22:52:24.136Z,16.33
2023-01-29T22:54:52.397Z,16.97
2023-01-29T22:57:20.285Z,16.97
2023-01-29T22:59:48.514Z,19.10
2023-01-29T23:02:17.855Z,18.03
2023-01-29T23:04:45.724Z,17.60
2023-01-29T23:07:13.551Z,16.43
2023-01-29T23:09:41.245Z,17.90
2023-01-29T23:12:09.037Z,18.33
2023-01-29T23:14:36.751Z,17.23
2023-01-29T23:17:04.863Z,18.53
2023-01-29T23:19:34.074Z,16.93
2023-01-29T23:22:03.302Z,16.70
2023-01-29T23:24:31.295Z,17.17
2023-01-29T23:27:16.293Z,14.90
2023-01-29T23:29:45.275Z,15.80
2023-01-29T23:32:15.538Z,16.07
2023-01-29T23:34:44.854Z,17.23
2023-01-29T23:37:12.895Z,15.00
2023-01-29T23:39:40.646Z,14.90
2023-01-29T23:42:08.505Z,15.40
2023-01-29T23:44:36.613Z,15.73
2023-01-29T23:47:04.727Z,15.23
2023-01-29T23:49:32.523Z,14.93
2023-01-29T23:52:02.453Z,15.23
2023-01-29T23:54:30.559Z,17.27
2023-01-29T23:56:58.219Z,16.03
2023-01-29T23:59:28.093Z,15.93
